Sutton, ND

08:21 AM CDT die 25o October, anno 2014 (GMT -0500)
Jamestown Municipal | Change Station
CLOSE
Current Station
Airport
Location: Jamestown,
Elevation: 1499 ft
Nearby Weather Stations

Elev 1499 ft 46.93 °N, 98.67 °W | Updated 25 minutes ago

Partialiter Nubila
Partialiter Nubila
38 °F
Feels Like 33 °F
N
7
Ventus Variabilis Ventus from Magis Zephyrus quam Aquilo

Hodie
High -- | Low -- °F
--% Chance of Precip.
Yesterday
High -- | Low -- °F
Precip. -- in
8:06 AM 6:27 PM
Waxing Crescent, 3% visible
Pressio 30.13 in
Visibilitas 10.0 milia passuum
Clouds Nubes Dispersae 11000 ft
Frigus Venti 33 °F
Frigus in quo Ros apparet 32 °F
Umor 79%
Rainfall 0.00 in
Snow Depth Not available.
UV 0 out of 12
Pollen 1.60 out of 12
Air Quality Not available.
Flu Activity Sporadic
METAR KJMS 251256Z AUTO 30006KT 10SM SCT110 03/00 A3009 RMK AO2 SLP201 T00330000

More Conditions Fewer Conditions

Pressio 30.13 in
Visibilitas 10.0 milia passuum
Clouds Nubes Dispersae 11000 ft
Frigus Venti 33 °F
Frigus in quo Ros apparet 32 °F
Umor 79%
Rainfall 0.00 in
Snow Depth Not available.
UV 0 out of 12
Pollen 1.60 out of 12
Air Quality Not available.
Flu Activity Sporadic
METAR KJMS 251256Z AUTO 30006KT 10SM SCT110 03/00 A3009 RMK AO2 SLP201 T00330000

More Conditions Fewer Conditions

10-Day Weather Forecast

Almanac

Astronomy

Oct. 25, 2014 Rise Set
Actual Time 8:06 AM CDT 6:27 PM CDT
Civil Twilight 7:35 AM CDT 6:59 PM CDT
Nautical Twilight 6:59 AM CDT 7:35 PM CDT
Astronomical Twilight 6:23 AM CDT 8:10 PM CDT
Moon 9:52 AM CDT 7:46 PM CDT
Length Of Visible Light 11h 24m
Length of Day
10h 21m
Tomorrow will be 3m 10s shorter.
Waxing Crescent, 3% of the Moon is Illuminated
Hodie
Waxing Crescent
Oct 30
First Quarter
Nov 6
Full
Nov 14
Last Quarter
Nov 22
New

Today's Extremes

State Highs State Lows

Community

WunderPhotos

Upload Photos

1,764,829 photos uploaded!

Nearby

Snow Depth

Station Depth Elevation
No new snow has been reported.

Earthquake Activity

City Distance Mag. Time & Date
No recent earthquake activity has been reported nearby.
Minimum magnitude displayed is 2.5.

Coastal Water Temperatures

Locus Calor
No Stations Reporting

Nearby Weather Stations